createdAt,value
2018-05-31T21:38:57.851Z,102059.48
2018-05-31T21:41:25.453Z,102050.41
2018-05-31T21:43:53.056Z,102056.86
2018-05-31T21:46:20.663Z,102061.77
2018-05-31T21:48:48.314Z,102055.07
2018-05-31T21:51:16.414Z,102053.23
2018-05-31T21:53:44.030Z,102055.07
2018-05-31T21:56:11.631Z,102050.51
2018-05-31T21:58:39.276Z,102051.87
2018-05-31T22:01:06.938Z,102050.91
2018-05-31T22:03:34.534Z,102049.70
2018-05-31T22:06:02.152Z,102045.26
2018-05-31T22:08:29.757Z,102042.14
2018-05-31T22:10:57.382Z,102044.77
2018-05-31T22:13:25.011Z,102047.05
2018-05-31T22:15:52.637Z,102040.70
2018-05-31T22:18:20.233Z,102034.83
2018-05-31T22:20:47.835Z,102030.70
2018-05-31T22:23:15.436Z,102030.77
2018-05-31T22:25:43.049Z,102034.00
2018-05-31T22:28:10.657Z,102029.62
2018-05-31T22:30:38.277Z,102043.56
2018-05-31T22:33:05.876Z,102043.19
2018-05-31T22:35:33.562Z,102045.03
2018-05-31T22:38:01.181Z,102048.34
2018-05-31T22:40:28.797Z,102044.70
2018-05-31T22:42:56.473Z,102047.96
2018-05-31T22:45:24.087Z,102051.26
2018-05-31T22:47:51.687Z,102050.89
2018-05-31T22:50:19.287Z,102048.33
2018-05-31T22:52:46.890Z,102048.75
2018-05-31T22:55:14.497Z,102049.30
2018-05-31T22:57:42.111Z,102044.38
2018-05-31T23:00:09.765Z,102033.61
2018-05-31T23:02:37.406Z,102036.81
2018-05-31T23:05:05.015Z,102032.80
2018-05-31T23:07:32.607Z,102027.81
2018-05-31T23:10:00.206Z,102034.22
2018-05-31T23:12:27.817Z,102030.73
2018-05-31T23:14:55.451Z,102028.36
2018-05-31T23:17:23.042Z,102022.16
2018-05-31T23:19:50.685Z,102022.22
2018-05-31T23:22:18.360Z,102023.14
2018-05-31T23:24:45.957Z,102016.45
2018-05-31T23:27:13.611Z,102020.42
2018-05-31T23:29:41.939Z,102020.00
2018-05-31T23:32:09.528Z,102025.58
2018-05-31T23:34:37.141Z,102030.51
2018-05-31T23:37:04.792Z,102028.00
2018-05-31T23:39:32.392Z,102026.22
2018-05-31T23:42:00.040Z,102024.14
2018-05-31T23:44:27.655Z,102033.21
2018-05-31T23:46:55.255Z,102029.20
2018-05-31T23:49:22.856Z,102025.68
2018-05-31T23:51:50.455Z,102025.34
2018-05-31T23:54:18.060Z,102029.03
2018-05-31T23:56:45.662Z,102026.91
2018-05-31T23:59:13.290Z,102022.03
